sensor_id;sensor_type;location;lat;lon;timestamp;pressure;altitude;pressure_sealevel;temperature;humidity
33075;BME280;19433;51.292;6.868;2023-02-13T00:01:30;102524.97;;;7.84;100.00
33075;BME280;19433;51.292;6.868;2023-02-13T00:03:56;102519.81;;;7.70;100.00
33075;BME280;19433;51.292;6.868;2023-02-13T00:06:21;102516.97;;;7.81;100.00
33075;BME280;19433;51.292;6.868;2023-02-13T00:08:47;102514.53;;;7.78;100.00
33075;BME280;19433;51.292;6.868;2023-02-13T00:11:12;102503.56;;;7.88;100.00
33075;BME280;19433;51.292;6.868;2023-02-13T00:13:37;102514.56;;;7.88;99.84
33075;BME280;19433;51.292;6.868;2023-02-13T00:16:03;102507.84;;;7.81;100.00
33075;BME280;19433;51.292;6.868;2023-02-13T00:18:33;102503.66;;;7.76;100.00
33075;BME280;19433;51.292;6.868;2023-02-13T00:21:09;102507.75;;;7.61;100.00
33075;BME280;19433;51.292;6.868;2023-02-13T00:23:35;102501.53;;;7.59;100.00
33075;BME280;19433;51.292;6.868;2023-02-13T00:26:05;102504.13;;;7.61;100.00
33075;BME280;19433;51.292;6.868;2023-02-13T00:28:31;102507.69;;;7.72;100.00
33075;BME280;19433;51.292;6.868;2023-02-13T00:31:12;102494.66;;;7.74;100.00
33075;BME280;19433;51.292;6.868;2023-02-13T00:33:38;102490.69;;;7.67;100.00
33075;BME280;19433;51.292;6.868;2023-02-13T00:36:07;102495.19;;;7.68;100.00
33075;BME280;19433;51.292;6.868;2023-02-13T00:38:34;102486.94;;;7.68;100.00
33075;BME280;19433;51.292;6.868;2023-02-13T00:40:59;102477.38;;;7.63;100.00
33075;BME280;19433;51.292;6.868;2023-02-13T00:43:25;102479.66;;;7.58;100.00
33075;BME280;19433;51.292;6.868;2023-02-13T00:45:50;102484.31;;;7.67;100.00
33075;BME280;19433;51.292;6.868;2023-02-13T00:48:16;102479.00;;;7.45;100.00
33075;BME280;19433;51.292;6.868;2023-02-13T00:50:41;102471.34;;;7.48;100.00
33075;BME280;19433;51.292;6.868;2023-02-13T00:53:06;102480.13;;;7.42;100.00
33075;BME280;19433;51.292;6.868;2023-02-13T00:55:32;102482.66;;;7.55;100.00
33075;BME280;19433;51.292;6.868;2023-02-13T00:57:58;102479.91;;;7.55;100.00
33075;BME280;19433;51.292;6.868;2023-02-13T01:00:23;102482.88;;;7.42;100.00
33075;BME280;19433;51.292;6.868;2023-02-13T01:02:48;102473.75;;;7.41;100.00
33075;BME280;19433;51.292;6.868;2023-02-13T01:05:13;102481.19;;;7.51;100.00
33075;BME280;19433;51.292;6.868;2023-02-13T01:07:39;102493.00;;;7.41;100.00
33075;BME280;19433;51.292;6.868;2023-02-13T01:10:05;102476.25;;;7.45;100.00
33075;BME280;19433;51.292;6.868;2023-02-13T01:12:30;102471.41;;;7.37;100.00
33075;BME280;19433;51.292;6.868;2023-02-13T01:14:56;102492.00;;;7.43;100.00
33075;BME280;19433;51.292;6.868;2023-02-13T01:17:21;102483.75;;;7.43;100.00
33075;BME280;19433;51.292;6.868;2023-02-13T01:19:46;102475.97;;;7.27;100.00
33075;BME280;19433;51.292;6.868;2023-02-13T01:22:11;102473.03;;;7.39;100.00
33075;BME280;19433;51.292;6.868;2023-02-13T01:24:37;102472.88;;;7.41;100.00
33075;BME280;19433;51.292;6.868;2023-02-13T01:27:02;102473.28;;;7.36;100.00
33075;BME280;19433;51.292;6.868;2023-02-13T01:29:28;102470.34;;;7.28;100.00
33075;BME280;19433;51.292;6.868;2023-02-13T01:31:53;102473.28;;;7.36;100.00
33075;BME280;19433;51.292;6.868;2023-02-13T01:34:18;102477.66;;;7.39;100.00
33075;BME280;19433;51.292;6.868;2023-02-13T01:36:44;102475.03;;;7.37;100.00
33075;BME280;19433;51.292;6.868;2023-02-13T01:39:10;102479.03;;;7.33;100.00
33075;BME280;19433;51.292;6.868;2023-02-13T01:41:36;102477.84;;;7.26;100.00
33075;BME280;19433;51.292;6.868;2023-02-13T01:44:02;102478.13;;;7.23;100.00
33075;BME280;19433;51.292;6.868;2023-02-13T01:46:34;102455.31;;;7.12;100.00
33075;BME280;19433;51.292;6.868;2023-02-13T01:49:12;102471.97;;;7.31;100.00
33075;BME280;19433;51.292;6.868;2023-02-13T01:51:39;102484.28;;;7.36;100.00
33075;BME280;19433;51.292;6.868;2023-02-13T01:54:14;102467.91;;;7.35;100.00
33075;BME280;19433;51.292;6.868;2023-02-13T01:56:53;102464.97;;;7.27;100.00
33075;BME280;19433;51.292;6.868;2023-02-13T01:59:25;102449.34;;;7.06;100.00
33075;BME280;19433;51.292;6.868;2023-02-13T02:01:51;102447.53;;;6.96;100.00
33075;BME280;19433;51.292;6.868;2023-02-13T02:04:24;102459.44;;;7.17;100.00
33075;BME280;19433;51.292;6.868;2023-02-13T02:06:57;102465.09;;;7.04;100.00
33075;BME280;19433;51.292;6.868;2023-02-13T02:09:28;102460.41;;;6.95;100.00
33075;BME280;19433;51.292;6.868;2023-02-13T02:12:18;102466.94;;;7.15;100.00
33075;BME280;19433;51.292;6.868;2023-02-13T02:14:47;102470.47;;;7.06;100.00
33075;BME280;19433;51.292;6.868;2023-02-13T02:17:13;102462.63;;;7.01;100.00
33075;BME280;19433;51.292;6.868;2023-02-13T02:25:14;102461.06;;;6.88;100.00
33075;BME280;19433;51.292;6.868;2023-02-13T02:30:51;102467.28;;;6.90;100.00
33075;BME280;19433;51.292;6.868;2023-02-13T02:36:33;102462.47;;;6.82;100.00
33075;BME280;19433;51.292;6.868;2023-02-13T02:39:35;102452.72;;;6.78;100.00
33075;BME280;19433;51.292;6.868;2023-02-13T02:42:26;102456.44;;;6.88;100.00
33075;BME280;19433;51.292;6.868;2023-02-13T02:44:55;102455.44;;;6.89;100.00
33075;BME280;19433;51.292;6.868;2023-02-13T02:47:36;102460.41;;;6.95;100.00
33075;BME280;19433;51.292;6.868;2023-02-13T02:53:05;102464.66;;;6.88;100.00
33075;BME280;19433;51.292;6.868;2023-02-13T02:55:45;102461.47;;;6.83;100.00
33075;BME280;19433;51.292;6.868;2023-02-13T02:58:30;102455.34;;;6.80;100.00
33075;BME280;19433;51.292;6.868;2023-02-13T03:01:19;102454.84;;;6.86;100.00
33075;BME280;19433;51.292;6.868;2023-02-13T03:04:04;102460.72;;;6.81;100.00
33075;BME280;19433;51.292;6.868;2023-02-13T03:06:58;102465.53;;;6.89;100.00
33075;BME280;19433;51.292;6.868;2023-02-13T03:09:31;102450.25;;;6.75;100.00
33075;BME280;19433;51.292;6.868;2023-02-13T03:12:20;102457.84;;;6.83;100.00
33075;BME280;19433;51.292;6.868;2023-02-13T03:15:05;102447.50;;;6.75;100.00
33075;BME280;19433;51.292;6.868;2023-02-13T03:17:31;102456.75;;;6.74;100.00
33075;BME280;19433;51.292;6.868;2023-02-13T03:20:44;102453.88;;;6.76;100.00
33075;BME280;19433;51.292;6.868;2023-02-13T03:23:40;102459.84;;;6.81;100.00
33075;BME280;19433;51.292;6.868;2023-02-13T03:26:34;102455.59;;;6.77;100.00
33075;BME280;19433;51.292;6.868;2023-02-13T03:29:20;102460.78;;;6.70;100.00
33075;BME280;19433;51.292;6.868;2023-02-13T03:34:56;102451.53;;;6.71;100.00
33075;BME280;19433;51.292;6.868;2023-02-13T03:37:44;102451.34;;;6.84;100.00
33075;BME280;19433;51.292;6.868;2023-02-13T03:46:38;102448.00;;;6.80;100.00
33075;BME280;19433;51.292;6.868;2023-02-13T03:49:07;102448.78;;;6.71;100.00
33075;BME280;19433;51.292;6.868;2023-02-13T03:52:06;102454.28;;;6.71;100.00
33075;BME280;19433;51.292;6.868;2023-02-13T03:54:37;102460.41;;;6.63;100.00
33075;BME280;19433;51.292;6.868;2023-02-13T03:57:23;102451.22;;;6.85;100.00
33075;BME280;19433;51.292;6.868;2023-02-13T04:00:13;102465.72;;;6.76;100.00
33075;BME280;19433;51.292;6.868;2023-02-13T04:03:06;102468.41;;;6.66;100.00
33075;BME280;19433;51.292;6.868;2023-02-13T04:05:31;102459.78;;;6.71;100.00
33075;BME280;19433;51.292;6.868;2023-02-13T04:08:01;102451.66;;;6.69;100.00
33075;BME280;19433;51.292;6.868;2023-02-13T04:10:30;102452.69;;;6.57;100.00
33075;BME280;19433;51.292;6.868;2023-02-13T04:13:21;102463.97;;;6.75;100.00
33075;BME280;19433;51.292;6.868;2023-02-13T04:18:55;102470.59;;;6.72;100.00
33075;BME280;19433;51.292;6.868;2023-02-13T04:21:21;102450.53;;;6.72;100.00
33075;BME280;19433;51.292;6.868;2023-02-13T04:23:47;102449.09;;;6.57;100.00
33075;BME280;19433;51.292;6.868;2023-02-13T04:26:20;102466.28;;;6.70;100.00
33075;BME280;19433;51.292;6.868;2023-02-13T04:28:45;102466.78;;;6.64;100.00
33075;BME280;19433;51.292;6.868;2023-02-13T04:31:11;102447.16;;;6.68;100.00
33075;BME280;19433;51.292;6.868;2023-02-13T04:33:36;102456.91;;;6.61;100.00
33075;BME280;19433;51.292;6.868;2023-02-13T04:36:01;102446.47;;;6.55;100.00
33075;BME280;19433;51.292;6.868;2023-02-13T04:38:27;102446.97;;;6.49;100.00
33075;BME280;19433;51.292;6.868;2023-02-13T04:40:52;102447.38;;;6.45;100.00
33075;BME280;19433;51.292;6.868;2023-02-13T04:43:17;102451.66;;;6.38;100.00
33075;BME280;19433;51.292;6.868;2023-02-13T04:45:47;102448.78;;;6.39;100.00
33075;BME280;19433;51.292;6.868;2023-02-13T04:48:12;102437.16;;;6.35;100.00
33075;BME280;19433;51.292;6.868;2023-02-13T04:50:38;102451.50;;;6.39;100.00
33075;BME280;19433;51.292;6.868;2023-02-13T04:53:03;102443.78;;;6.33;100.00
33075;BME280;19433;51.292;6.868;2023-02-13T04:55:29;102454.00;;;6.31;100.00
33075;BME280;19433;51.292;6.868;2023-02-13T04:57:54;102445.91;;;6.29;100.00
33075;BME280;19433;51.292;6.868;2023-02-13T05:00:21;102450.06;;;6.24;100.00
33075;BME280;19433;51.292;6.868;2023-02-13T05:02:47;102456.16;;;6.16;100.00
33075;BME280;19433;51.292;6.868;2023-02-13T05:05:13;102456.91;;;6.18;100.00
33075;BME280;19433;51.292;6.868;2023-02-13T05:07:38;102442.97;;;5.99;100.00
33075;BME280;19433;51.292;6.868;2023-02-13T05:10:03;102453.94;;;5.99;100.00
33075;BME280;19433;51.292;6.868;2023-02-13T05:12:29;102452.31;;;5.85;100.00
33075;BME280;19433;51.292;6.868;2023-02-13T05:14:54;102462.41;;;5.85;100.00
33075;BME280;19433;51.292;6.868;2023-02-13T05:17:19;102450.84;;;5.92;100.00
33075;BME280;19433;51.292;6.868;2023-02-13T05:19:45;102452.66;;;5.81;100.00
33075;BME280;19433;51.292;6.868;2023-02-13T05:22:10;102447.44;;;5.66;100.00
33075;BME280;19433;51.292;6.868;2023-02-13T05:24:54;102440.34;;;5.75;100.00
33075;BME280;19433;51.292;6.868;2023-02-13T05:27:19;102447.56;;;5.76;100.00
33075;BME280;19433;51.292;6.868;2023-02-13T05:29:45;102449.06;;;5.69;100.00
33075;BME280;19433;51.292;6.868;2023-02-13T05:32:10;102456.81;;;5.75;100.00
33075;BME280;19433;51.292;6.868;2023-02-13T05:34:35;102435.22;;;5.82;100.00
33075;BME280;19433;51.292;6.868;2023-02-13T05:37:00;102432.38;;;5.72;100.00
33075;BME280;19433;51.292;6.868;2023-02-13T05:39:26;102444.19;;;5.84;100.00
33075;BME280;19433;51.292;6.868;2023-02-13T05:41:51;102444.97;;;5.63;100.00
33075;BME280;19433;51.292;6.868;2023-02-13T05:44:17;102441.84;;;5.46;100.00
33075;BME280;19433;51.292;6.868;2023-02-13T05:46:42;102445.81;;;5.53;100.00
33075;BME280;19433;51.292;6.868;2023-02-13T05:49:09;102437.34;;;5.56;100.00
33075;BME280;19433;51.292;6.868;2023-02-13T05:51:35;102437.06;;;5.37;100.00
33075;BME280;19433;51.292;6.868;2023-02-13T05:54:02;102447.44;;;5.33;100.00
33075;BME280;19433;51.292;6.868;2023-02-13T05:56:28;102441.31;;;5.29;100.00
33075;BME280;19433;51.292;6.868;2023-02-13T05:58:54;102436.81;;;5.28;100.00
33075;BME280;19433;51.292;6.868;2023-02-13T06:01:20;102426.72;;;5.18;100.00
33075;BME280;19433;51.292;6.868;2023-02-13T06:03:46;102431.44;;;5.16;100.00
33075;BME280;19433;51.292;6.868;2023-02-13T06:06:11;102440.03;;;5.22;100.00
33075;BME280;19433;51.292;6.868;2023-02-13T06:08:37;102418.25;;;5.21;100.00
33075;BME280;19433;51.292;6.868;2023-02-13T06:11:03;102421.97;;;5.20;100.00
33075;BME280;19433;51.292;6.868;2023-02-13T06:13:28;102430.78;;;5.01;100.00
33075;BME280;19433;51.292;6.868;2023-02-13T06:15:54;102438.06;;;5.24;100.00
33075;BME280;19433;51.292;6.868;2023-02-13T06:18:19;102423.13;;;5.28;100.00
33075;BME280;19433;51.292;6.868;2023-02-13T06:20:44;102422.72;;;5.22;100.00
33075;BME280;19433;51.292;6.868;2023-02-13T06:23:10;102424.44;;;5.01;100.00
33075;BME280;19433;51.292;6.868;2023-02-13T06:25:36;102434.53;;;5.11;100.00
33075;BME280;19433;51.292;6.868;2023-02-13T06:28:02;102430.69;;;5.14;100.00
33075;BME280;19433;51.292;6.868;2023-02-13T06:30:27;102437.81;;;5.27;100.00
33075;BME280;19433;51.292;6.868;2023-02-13T06:32:52;102431.81;;;5.22;100.00
33075;BME280;19433;51.292;6.868;2023-02-13T06:35:18;102429.81;;;5.02;100.00
33075;BME280;19433;51.292;6.868;2023-02-13T06:37:43;102435.66;;;5.09;100.00
33075;BME280;19433;51.292;6.868;2023-02-13T06:40:09;102432.69;;;5.23;100.00
33075;BME280;19433;51.292;6.868;2023-02-13T06:42:35;102440.31;;;5.19;100.00
33075;BME280;19433;51.292;6.868;2023-02-13T06:45:00;102428.22;;;5.22;100.00
33075;BME280;19433;51.292;6.868;2023-02-13T06:47:26;102433.56;;;5.23;100.00
33075;BME280;19433;51.292;6.868;2023-02-13T06:49:51;102435.31;;;5.24;100.00
33075;BME280;19433;51.292;6.868;2023-02-13T06:52:17;102415.00;;;5.16;100.00
33075;BME280;19433;51.292;6.868;2023-02-13T06:54:42;102421.97;;;5.20;100.00
33075;BME280;19433;51.292;6.868;2023-02-13T06:57:07;102419.13;;;5.21;100.00
33075;BME280;19433;51.292;6.868;2023-02-13T06:59:33;102411.53;;;5.25;100.00
33075;BME280;19433;51.292;6.868;2023-02-13T07:01:58;102428.59;;;5.17;100.00
33075;BME280;19433;51.292;6.868;2023-02-13T07:04:23;102415.38;;;5.11;100.00
33075;BME280;19433;51.292;6.868;2023-02-13T07:06:49;102430.69;;;5.14;100.00
33075;BME280;19433;51.292;6.868;2023-02-13T07:09:14;102433.09;;;5.18;100.00
33075;BME280;19433;51.292;6.868;2023-02-13T07:11:41;102418.38;;;5.19;100.00
33075;BME280;19433;51.292;6.868;2023-02-13T07:14:06;102436.88;;;5.05;100.00
33075;BME280;19433;51.292;6.868;2023-02-13T07:16:32;102430.53;;;5.04;100.00
33075;BME280;19433;51.292;6.868;2023-02-13T07:18:57;102417.06;;;4.90;100.00
33075;BME280;19433;51.292;6.868;2023-02-13T07:21:23;102430.28;;;5.07;100.00
33075;BME280;19433;51.292;6.868;2023-02-13T07:23:48;102415.59;;;4.97;100.00
33075;BME280;19433;51.292;6.868;2023-02-13T07:26:13;102423.72;;;5.10;100.00
33075;BME280;19433;51.292;6.868;2023-02-13T07:28:40;102433.97;;;5.19;100.00
33075;BME280;19433;51.292;6.868;2023-02-13T07:31:06;102423.59;;;5.11;100.00
33075;BME280;19433;51.292;6.868;2023-02-13T07:33:35;102427.84;;;5.26;100.00
33075;BME280;19433;51.292;6.868;2023-02-13T07:36:00;102438.22;;;5.34;100.00
33075;BME280;19433;51.292;6.868;2023-02-13T07:38:28;102444.69;;;5.33;100.00
33075;BME280;19433;51.292;6.868;2023-02-13T07:40:53;102434.31;;;5.25;100.00
33075;BME280;19433;51.292;6.868;2023-02-13T07:43:18;102439.56;;;5.40;100.00
33075;BME280;19433;51.292;6.868;2023-02-13T07:45:44;102429.13;;;5.34;100.00
33075;BME280;19433;51.292;6.868;2023-02-13T07:48:11;102439.44;;;5.41;100.00
33075;BME280;19433;51.292;6.868;2023-02-13T07:50:36;102442.31;;;5.51;100.00
33075;BME280;19433;51.292;6.868;2023-02-13T07:53:01;102447.94;;;5.49;100.00
33075;BME280;19433;51.292;6.868;2023-02-13T07:55:28;102436.84;;;5.51;100.00
33075;BME280;19433;51.292;6.868;2023-02-13T07:57:54;102452.56;;;5.71;100.00
33075;BME280;19433;51.292;6.868;2023-02-13T08:00:20;102449.06;;;5.69;100.00
33075;BME280;19433;51.292;6.868;2023-02-13T08:02:46;102454.06;;;5.75;100.00
33075;BME280;19433;51.292;6.868;2023-02-13T08:05:11;102448.31;;;6.00;100.00
33075;BME280;19433;51.292;6.868;2023-02-13T08:07:36;102462.75;;;7.00;100.00
33075;BME280;19433;51.292;6.868;2023-02-13T08:10:03;102468.63;;;8.19;96.00
33075;BME280;19433;51.292;6.868;2023-02-13T08:12:49;102459.50;;;9.63;88.01
33075;BME280;19433;51.292;6.868;2023-02-13T08:15:15;102459.72;;;10.53;81.54
33075;BME280;19433;51.292;6.868;2023-02-13T08:17:40;102467.03;;;10.44;80.18
33075;BME280;19433;51.292;6.868;2023-02-13T08:20:07;102462.75;;;9.48;84.40
33075;BME280;19433;51.292;6.868;2023-02-13T08:22:33;102461.91;;;8.11;91.88
33075;BME280;19433;51.292;6.868;2023-02-13T08:24:59;102462.91;;;7.70;94.83
33075;BME280;19433;51.292;6.868;2023-02-13T08:27:24;102460.13;;;7.40;96.70
33075;BME280;19433;51.292;6.868;2023-02-13T08:29:49;102458.94;;;7.12;98.26
33075;BME280;19433;51.292;6.868;2023-02-13T08:32:15;102464.97;;;7.06;99.18
33075;BME280;19433;51.292;6.868;2023-02-13T08:34:40;102465.44;;;7.11;98.70
33075;BME280;19433;51.292;6.868;2023-02-13T08:37:06;102467.25;;;7.01;99.76
33075;BME280;19433;51.292;6.868;2023-02-13T08:39:31;102461.03;;;6.99;100.00
33075;BME280;19433;51.292;6.868;2023-02-13T08:41:56;102460.34;;;7.06;99.71
33075;BME280;19433;51.292;6.868;2023-02-13T08:44:21;102465.63;;;7.19;99.00
33075;BME280;19433;51.292;6.868;2023-02-13T08:46:47;102466.59;;;7.29;98.14
33075;BME280;19433;51.292;6.868;2023-02-13T08:49:12;102467.88;;;7.46;97.78
33075;BME280;19433;51.292;6.868;2023-02-13T08:51:37;102474.31;;;7.66;96.49
33075;BME280;19433;51.292;6.868;2023-02-13T08:54:03;102470.31;;;8.10;94.00
33075;BME280;19433;51.292;6.868;2023-02-13T08:56:28;102464.53;;;8.63;91.04
33075;BME280;19433;51.292;6.868;2023-02-13T08:58:53;102474.66;;;9.49;87.09
33075;BME280;19433;51.292;6.868;2023-02-13T09:01:19;102473.91;;;10.03;82.61
33075;BME280;19433;51.292;6.868;2023-02-13T09:03:44;102475.03;;;10.65;78.96
33075;BME280;19433;51.292;6.868;2023-02-13T09:06:09;102475.84;;;11.54;73.96
33075;BME280;19433;51.292;6.868;2023-02-13T09:08:35;102479.84;;;12.04;71.10
33075;BME280;19433;51.292;6.868;2023-02-13T09:11:02;102493.94;;;12.60;68.52
33075;BME280;19433;51.292;6.868;2023-02-13T09:13:29;102493.38;;;13.31;66.01
33075;BME280;19433;51.292;6.868;2023-02-13T09:16:01;102494.06;;;14.76;59.69
33075;BME280;19433;51.292;6.868;2023-02-13T09:18:27;102492.28;;;14.84;58.87
33075;BME280;19433;51.292;6.868;2023-02-13T09:21:10;102498.44;;;15.85;55.60
33075;BME280;19433;51.292;6.868;2023-02-13T09:23:38;102503.66;;;16.76;50.80
33075;BME280;19433;51.292;6.868;2023-02-13T09:26:06;102495.47;;;17.11;49.73
33075;BME280;19433;51.292;6.868;2023-02-13T09:28:33;102508.25;;;17.41;48.51
33075;BME280;19433;51.292;6.868;2023-02-13T09:30:58;102504.63;;;17.47;46.74
33075;BME280;19433;51.292;6.868;2023-02-13T09:33:24;102512.88;;;16.62;49.40
33075;BME280;19433;51.292;6.868;2023-02-13T09:35:51;102507.13;;;16.49;49.51
33075;BME280;19433;51.292;6.868;2023-02-13T09:38:16;102508.63;;;16.51;48.68
33075;BME280;19433;51.292;6.868;2023-02-13T09:40:49;102512.56;;;17.86;46.24
33075;BME280;19433;51.292;6.868;2023-02-13T09:43:30;102509.16;;;19.27;41.69
33075;BME280;19433;51.292;6.868;2023-02-13T09:46:17;102516.16;;;19.64;40.18
33075;BME280;19433;51.292;6.868;2023-02-13T09:48:46;102514.50;;;19.03;41.38
33075;BME280;19433;51.292;6.868;2023-02-13T09:51:15;102523.66;;;21.01;36.58
33075;BME280;19433;51.292;6.868;2023-02-13T09:54:02;102522.59;;;21.02;36.83
33075;BME280;19433;51.292;6.868;2023-02-13T09:56:49;102531.31;;;22.38;33.98
33075;BME280;19433;51.292;6.868;2023-02-13T10:02:00;102532.06;;;22.88;32.56
33075;BME280;19433;51.292;6.868;2023-02-13T10:04:40;102524.03;;;22.67;32.80
33075;BME280;19433;51.292;6.868;2023-02-13T10:07:19;102527.59;;;23.70;31.85
33075;BME280;19433;51.292;6.868;2023-02-13T10:15:39;102529.50;;;24.00;29.84
33075;BME280;19433;51.292;6.868;2023-02-13T10:18:16;102522.09;;;25.04;29.76
33075;BME280;19433;51.292;6.868;2023-02-13T10:20:47;102536.28;;;26.66;26.65
33075;BME280;19433;51.292;6.868;2023-02-13T10:23:25;102545.25;;;27.18;26.77
33075;BME280;19433;51.292;6.868;2023-02-13T10:25:56;102528.25;;;27.23;25.99
33075;BME280;19433;51.292;6.868;2023-02-13T10:28:37;102533.94;;;26.24;26.29
33075;BME280;19433;51.292;6.868;2023-02-13T10:31:13;102538.06;;;26.17;26.27
33075;BME280;19433;51.292;6.868;2023-02-13T10:33:49;102541.88;;;27.48;25.50
33075;BME280;19433;51.292;6.868;2023-02-13T10:36:21;102540.25;;;28.16;24.79
33075;BME280;19433;51.292;6.868;2023-02-13T10:41:39;102542.25;;;31.28;21.37
33075;BME280;19433;51.292;6.868;2023-02-13T10:47:12;102543.63;;;29.75;21.83
33075;BME280;19433;51.292;6.868;2023-02-13T10:49:54;102537.91;;;29.80;22.45
33075;BME280;19433;51.292;6.868;2023-02-13T11:00:26;102537.19;;;31.98;19.83
33075;BME280;19433;51.292;6.868;2023-02-13T11:02:57;102533.13;;;31.75;20.09
33075;BME280;19433;51.292;6.868;2023-02-13T11:05:27;102529.09;;;32.10;19.83
33075;BME280;19433;51.292;6.868;2023-02-13T11:07:54;102509.22;;;28.47;22.52
33075;BME280;19433;51.292;6.868;2023-02-13T11:10:22;102504.69;;;26.79;24.94
33075;BME280;19433;51.292;6.868;2023-02-13T11:12:48;102495.59;;;27.75;24.86
33075;BME280;19433;51.292;6.868;2023-02-13T11:15:26;102506.41;;;28.99;23.27
33075;BME280;19433;51.292;6.868;2023-02-13T11:17:54;102502.53;;;30.62;22.41
33075;BME280;19433;51.292;6.868;2023-02-13T11:20:41;102484.69;;;28.88;22.55
33075;BME280;19433;51.292;6.868;2023-02-13T11:25:56;102492.97;;;31.91;19.84
33075;BME280;19433;51.292;6.868;2023-02-13T11:28:23;102482.22;;;30.79;20.41
33075;BME280;19433;51.292;6.868;2023-02-13T11:30:50;102468.13;;;30.08;21.14
33075;BME280;19433;51.292;6.868;2023-02-13T11:33:26;102479.50;;;29.52;22.40
33075;BME280;19433;51.292;6.868;2023-02-13T11:36:14;102474.78;;;30.78;19.85
33075;BME280;19433;51.292;6.868;2023-02-13T11:38:39;102486.28;;;30.48;21.05
33075;BME280;19433;51.292;6.868;2023-02-13T11:41:10;102480.00;;;30.61;20.27
33075;BME280;19433;51.292;6.868;2023-02-13T11:43:58;102473.66;;;30.74;20.95
33075;BME280;19433;51.292;6.868;2023-02-13T11:46:29;102478.22;;;30.80;20.48
33075;BME280;19433;51.292;6.868;2023-02-13T11:49:08;102474.63;;;31.58;19.59
33075;BME280;19433;51.292;6.868;2023-02-13T11:52:06;102472.03;;;31.95;19.34
33075;BME280;19433;51.292;6.868;2023-02-13T11:54:34;102473.16;;;30.41;20.27
33075;BME280;19433;51.292;6.868;2023-02-13T11:57:08;102461.84;;;29.70;20.99
33075;BME280;19433;51.292;6.868;2023-02-13T11:59:43;102446.88;;;27.93;23.26
33075;BME280;19433;51.292;6.868;2023-02-13T12:02:21;102458.31;;;31.19;20.44
33075;BME280;19433;51.292;6.868;2023-02-13T12:04:55;102448.72;;;29.85;21.21
33075;BME280;19433;51.292;6.868;2023-02-13T12:07:39;102449.50;;;30.41;20.81
33075;BME280;19433;51.292;6.868;2023-02-13T12:10:29;102434.56;;;28.19;22.62
33075;BME280;19433;51.292;6.868;2023-02-13T12:13:24;102441.50;;;28.96;22.36
33075;BME280;19433;51.292;6.868;2023-02-13T12:15:57;102430.09;;;30.48;21.72
33075;BME280;19433;51.292;6.868;2023-02-13T12:18:41;102437.63;;;31.76;19.90
33075;BME280;19433;51.292;6.868;2023-02-13T12:21:30;102418.75;;;30.92;19.73
33075;BME280;19433;51.292;6.868;2023-02-13T12:26:39;102438.28;;;32.26;18.85
33075;BME280;19433;51.292;6.868;2023-02-13T12:32:06;102429.28;;;33.04;18.43
33075;BME280;19433;51.292;6.868;2023-02-13T12:51:40;102407.75;;;33.07;18.26
33075;BME280;19433;51.292;6.868;2023-02-13T12:59:43;102403.28;;;33.71;18.00
33075;BME280;19433;51.292;6.868;2023-02-13T13:07:55;102390.50;;;31.74;19.85
33075;BME280;19433;51.292;6.868;2023-02-13T13:10:39;102387.53;;;31.16;20.15
33075;BME280;19433;51.292;6.868;2023-02-13T13:13:12;102385.03;;;31.77;19.70
33075;BME280;19433;51.292;6.868;2023-02-13T13:16:07;102378.19;;;31.39;19.42
33075;BME280;19433;51.292;6.868;2023-02-13T13:24:06;102376.78;;;32.90;18.86
33075;BME280;19433;51.292;6.868;2023-02-13T13:26:38;102370.06;;;32.81;18.68
33075;BME280;19433;51.292;6.868;2023-02-13T13:29:22;102360.88;;;31.26;19.97
33075;BME280;19433;51.292;6.868;2023-02-13T13:31:54;102354.97;;;29.93;20.72
33075;BME280;19433;51.292;6.868;2023-02-13T13:34:23;102340.00;;;26.37;23.93
33075;BME280;19433;51.292;6.868;2023-02-13T13:42:36;102314.84;;;20.69;33.24
33075;BME280;19433;51.292;6.868;2023-02-13T13:48:02;102296.84;;;18.77;37.75
33075;BME280;19433;51.292;6.868;2023-02-13T13:50:34;102306.78;;;18.12;38.82
33075;BME280;19433;51.292;6.868;2023-02-13T13:58:44;102297.88;;;16.13;44.08
33075;BME280;19433;51.292;6.868;2023-02-13T14:03:40;102279.03;;;15.35;45.68
33075;BME280;19433;51.292;6.868;2023-02-13T14:06:09;102280.44;;;15.16;46.84
33075;BME280;19433;51.292;6.868;2023-02-13T14:11:35;102269.59;;;14.23;52.20
33075;BME280;19433;51.292;6.868;2023-02-13T14:16:53;102276.25;;;14.45;50.66
33075;BME280;19433;51.292;6.868;2023-02-13T14:19:30;102269.16;;;14.42;48.80
33075;BME280;19433;51.292;6.868;2023-02-13T14:22:33;102269.44;;;14.70;48.11
33075;BME280;19433;51.292;6.868;2023-02-13T14:25:05;102265.38;;;14.58;48.27
33075;BME280;19433;51.292;6.868;2023-02-13T14:27:33;102270.53;;;14.38;48.69
33075;BME280;19433;51.292;6.868;2023-02-13T14:30:02;102266.63;;;14.02;50.73
33075;BME280;19433;51.292;6.868;2023-02-13T14:32:36;102266.38;;;14.12;50.52
33075;BME280;19433;51.292;6.868;2023-02-13T14:35:17;102264.47;;;14.12;50.63
33075;BME280;19433;51.292;6.868;2023-02-13T14:37:53;102254.16;;;14.21;49.07
33075;BME280;19433;51.292;6.868;2023-02-13T14:42:48;102267.31;;;14.27;49.24
33075;BME280;19433;51.292;6.868;2023-02-13T14:45:18;102255.16;;;14.05;50.12
33075;BME280;19433;51.292;6.868;2023-02-13T14:47:49;102256.13;;;14.12;49.26
33075;BME280;19433;51.292;6.868;2023-02-13T14:50:29;102250.03;;;14.17;49.27
33075;BME280;19433;51.292;6.868;2023-02-13T14:52:56;102268.91;;;14.21;49.39
33075;BME280;19433;51.292;6.868;2023-02-13T14:55:39;102258.56;;;14.15;50.78
33075;BME280;19433;51.292;6.868;2023-02-13T14:58:15;102262.16;;;13.93;51.88
33075;BME280;19433;51.292;6.868;2023-02-13T15:00:51;102242.97;;;14.06;49.63
33075;BME280;19433;51.292;6.868;2023-02-13T15:06:13;102251.63;;;14.11;49.53
33075;BME280;19433;51.292;6.868;2023-02-13T15:08:49;102238.72;;;14.18;49.08